sensor_id;sensor_type;location;lat;lon;timestamp;P1;P2;P0
72023;PMS5003;59889;50.700;5.440;2024-01-15T00:00:27;43;40;
72023;PMS5003;59889;50.700;5.440;2024-01-15T00:02:52;42;37;
72023;PMS5003;59889;50.700;5.440;2024-01-15T00:05:18;42;39;
72023;PMS5003;59889;50.700;5.440;2024-01-15T00:07:43;37;37;
72023;PMS5003;59889;50.700;5.440;2024-01-15T00:10:08;42;41;
72023;PMS5003;59889;50.700;5.440;2024-01-15T00:12:34;38;37;
72023;PMS5003;59889;50.700;5.440;2024-01-15T00:15:00;36;35;
72023;PMS5003;59889;50.700;5.440;2024-01-15T00:17:25;44;38;
72023;PMS5003;59889;50.700;5.440;2024-01-15T00:19:51;45;42;
72023;PMS5003;59889;50.700;5.440;2024-01-15T00:22:16;42;40;
72023;PMS5003;59889;50.700;5.440;2024-01-15T00:24:42;45;42;
72023;PMS5003;59889;50.700;5.440;2024-01-15T00:27:07;38;36;
72023;PMS5003;59889;50.700;5.440;2024-01-15T00:29:33;44;40;
72023;PMS5003;59889;50.700;5.440;2024-01-15T00:31:58;36;35;
72023;PMS5003;59889;50.700;5.440;2024-01-15T00:34:24;37;35;
72023;PMS5003;59889;50.700;5.440;2024-01-15T00:36:50;41;39;
72023;PMS5003;59889;50.700;5.440;2024-01-15T00:39:15;37;33;
72023;PMS5003;59889;50.700;5.440;2024-01-15T00:41:40;39;37;
72023;PMS5003;59889;50.700;5.440;2024-01-15T00:44:06;40;37;
72023;PMS5003;59889;50.700;5.440;2024-01-15T00:46:32;37;32;
72023;PMS5003;59889;50.700;5.440;2024-01-15T00:48:58;37;34;
72023;PMS5003;59889;50.700;5.440;2024-01-15T00:51:24;34;33;
72023;PMS5003;59889;50.700;5.440;2024-01-15T00:53:48;35;33;
72023;PMS5003;59889;50.700;5.440;2024-01-15T00:56:14;35;33;
72023;PMS5003;59889;50.700;5.440;2024-01-15T00:58:39;36;35;
72023;PMS5003;59889;50.700;5.440;2024-01-15T01:01:05;34;33;
72023;PMS5003;59889;50.700;5.440;2024-01-15T01:03:30;37;35;
72023;PMS5003;59889;50.700;5.440;2024-01-15T01:05:56;40;37;
72023;PMS5003;59889;50.700;5.440;2024-01-15T01:08:21;35;34;
72023;PMS5003;59889;50.700;5.440;2024-01-15T01:10:47;35;34;
72023;PMS5003;59889;50.700;5.440;2024-01-15T01:13:12;41;39;
72023;PMS5003;59889;50.700;5.440;2024-01-15T01:15:38;36;34;
72023;PMS5003;59889;50.700;5.440;2024-01-15T01:18:04;36;35;
72023;PMS5003;59889;50.700;5.440;2024-01-15T01:20:29;33;31;
72023;PMS5003;59889;50.700;5.440;2024-01-15T01:22:54;41;36;
72023;PMS5003;59889;50.700;5.440;2024-01-15T01:25:20;33;33;
72023;PMS5003;59889;50.700;5.440;2024-01-15T01:27:45;33;32;
72023;PMS5003;59889;50.700;5.440;2024-01-15T01:30:10;32;32;
72023;PMS5003;59889;50.700;5.440;2024-01-15T01:32:36;33;32;
72023;PMS5003;59889;50.700;5.440;2024-01-15T01:35:02;29;29;
72023;PMS5003;59889;50.700;5.440;2024-01-15T01:37:27;36;34;
72023;PMS5003;59889;50.700;5.440;2024-01-15T01:39:52;33;32;
72023;PMS5003;59889;50.700;5.440;2024-01-15T01:42:18;32;31;
72023;PMS5003;59889;50.700;5.440;2024-01-15T01:44:43;33;31;
72023;PMS5003;59889;50.700;5.440;2024-01-15T01:47:08;34;32;
72023;PMS5003;59889;50.700;5.440;2024-01-15T01:49:34;32;30;
72023;PMS5003;59889;50.700;5.440;2024-01-15T01:52:00;32;32;
72023;PMS5003;59889;50.700;5.440;2024-01-15T01:54:25;29;28;
72023;PMS5003;59889;50.700;5.440;2024-01-15T01:56:51;29;28;
72023;PMS5003;59889;50.700;5.440;2024-01-15T01:59:16;32;28;
72023;PMS5003;59889;50.700;5.440;2024-01-15T02:01:41;28;28;
72023;PMS5003;59889;50.700;5.440;2024-01-15T02:04:07;32;29;
72023;PMS5003;59889;50.700;5.440;2024-01-15T02:06:33;36;34;
72023;PMS5003;59889;50.700;5.440;2024-01-15T02:08:58;30;28;
72023;PMS5003;59889;50.700;5.440;2024-01-15T02:11:24;28;27;
72023;PMS5003;59889;50.700;5.440;2024-01-15T02:13:49;30;30;
72023;PMS5003;59889;50.700;5.440;2024-01-15T02:16:14;31;29;
72023;PMS5003;59889;50.700;5.440;2024-01-15T02:18:41;29;27;
72023;PMS5003;59889;50.700;5.440;2024-01-15T02:21:05;25;25;
72023;PMS5003;59889;50.700;5.440;2024-01-15T02:23:31;30;28;
72023;PMS5003;59889;50.700;5.440;2024-01-15T02:25:56;27;27;
72023;PMS5003;59889;50.700;5.440;2024-01-15T02:28:21;32;31;
72023;PMS5003;59889;50.700;5.440;2024-01-15T02:30:48;31;29;
72023;PMS5003;59889;50.700;5.440;2024-01-15T02:33:12;33;30;
72023;PMS5003;59889;50.700;5.440;2024-01-15T02:35:38;36;35;
72023;PMS5003;59889;50.700;5.440;2024-01-15T02:38:03;29;28;
72023;PMS5003;59889;50.700;5.440;2024-01-15T02:40:29;28;27;
72023;PMS5003;59889;50.700;5.440;2024-01-15T02:42:54;29;28;
72023;PMS5003;59889;50.700;5.440;2024-01-15T02:45:21;30;29;
72023;PMS5003;59889;50.700;5.440;2024-01-15T02:47:44;27;26;
72023;PMS5003;59889;50.700;5.440;2024-01-15T02:50:10;28;26;
72023;PMS5003;59889;50.700;5.440;2024-01-15T02:52:36;23;23;
72023;PMS5003;59889;50.700;5.440;2024-01-15T02:55:01;32;28;
72023;PMS5003;59889;50.700;5.440;2024-01-15T02:57:26;34;27;
72023;PMS5003;59889;50.700;5.440;2024-01-15T02:59:52;28;26;
72023;PMS5003;59889;50.700;5.440;2024-01-15T03:02:17;25;23;
72023;PMS5003;59889;50.700;5.440;2024-01-15T03:04:43;30;27;
72023;PMS5003;59889;50.700;5.440;2024-01-15T03:07:08;25;25;
72023;PMS5003;59889;50.700;5.440;2024-01-15T03:09:34;27;26;
72023;PMS5003;59889;50.700;5.440;2024-01-15T03:12:00;24;23;
72023;PMS5003;59889;50.700;5.440;2024-01-15T03:14:26;29;26;
72023;PMS5003;59889;50.700;5.440;2024-01-15T03:16:51;32;31;
72023;PMS5003;59889;50.700;5.440;2024-01-15T03:19:17;25;22;
72023;PMS5003;59889;50.700;5.440;2024-01-15T03:21:42;25;24;
72023;PMS5003;59889;50.700;5.440;2024-01-15T03:24:07;24;23;
72023;PMS5003;59889;50.700;5.440;2024-01-15T03:26:33;23;23;
72023;PMS5003;59889;50.700;5.440;2024-01-15T03:28:59;29;27;
72023;PMS5003;59889;50.700;5.440;2024-01-15T03:31:24;23;22;
72023;PMS5003;59889;50.700;5.440;2024-01-15T03:33:50;29;25;
72023;PMS5003;59889;50.700;5.440;2024-01-15T03:36:15;25;24;
72023;PMS5003;59889;50.700;5.440;2024-01-15T03:38:40;25;24;
72023;PMS5003;59889;50.700;5.440;2024-01-15T03:41:06;23;22;
72023;PMS5003;59889;50.700;5.440;2024-01-15T03:43:31;26;24;
72023;PMS5003;59889;50.700;5.440;2024-01-15T03:45:57;26;25;
72023;PMS5003;59889;50.700;5.440;2024-01-15T03:48:22;27;27;
72023;PMS5003;59889;50.700;5.440;2024-01-15T03:50:48;26;22;
72023;PMS5003;59889;50.700;5.440;2024-01-15T03:53:13;24;23;
72023;PMS5003;59889;50.700;5.440;2024-01-15T03:55:39;25;24;
72023;PMS5003;59889;50.700;5.440;2024-01-15T03:58:04;22;20;
72023;PMS5003;59889;50.700;5.440;2024-01-15T04:00:30;24;22;
72023;PMS5003;59889;50.700;5.440;2024-01-15T04:02:55;23;22;
72023;PMS5003;59889;50.700;5.440;2024-01-15T04:05:20;20;20;
72023;PMS5003;59889;50.700;5.440;2024-01-15T04:07:45;20;19;
72023;PMS5003;59889;50.700;5.440;2024-01-15T04:10:11;24;22;
72023;PMS5003;59889;50.700;5.440;2024-01-15T04:12:37;23;22;
72023;PMS5003;59889;50.700;5.440;2024-01-15T04:15:01;29;26;
72023;PMS5003;59889;50.700;5.440;2024-01-15T04:17:27;25;23;
72023;PMS5003;59889;50.700;5.440;2024-01-15T04:19:52;24;22;
72023;PMS5003;59889;50.700;5.440;2024-01-15T04:22:18;26;25;
72023;PMS5003;59889;50.700;5.440;2024-01-15T04:24:43;22;19;
72023;PMS5003;59889;50.700;5.440;2024-01-15T04:27:09;22;21;
72023;PMS5003;59889;50.700;5.440;2024-01-15T04:29:37;23;22;
72023;PMS5003;59889;50.700;5.440;2024-01-15T04:32:00;22;22;
72023;PMS5003;59889;50.700;5.440;2024-01-15T04:34:26;19;17;
72023;PMS5003;59889;50.700;5.440;2024-01-15T04:36:52;21;20;
72023;PMS5003;59889;50.700;5.440;2024-01-15T04:39:16;19;19;
72023;PMS5003;59889;50.700;5.440;2024-01-15T04:41:42;21;20;
72023;PMS5003;59889;50.700;5.440;2024-01-15T04:44:07;23;22;
72023;PMS5003;59889;50.700;5.440;2024-01-15T04:46:33;19;18;
72023;PMS5003;59889;50.700;5.440;2024-01-15T04:48:59;20;20;
72023;PMS5003;59889;50.700;5.440;2024-01-15T04:51:23;19;19;
72023;PMS5003;59889;50.700;5.440;2024-01-15T04:53:49;18;18;
72023;PMS5003;59889;50.700;5.440;2024-01-15T04:56:14;19;18;
72023;PMS5003;59889;50.700;5.440;2024-01-15T04:58:40;25;22;
72023;PMS5003;59889;50.700;5.440;2024-01-15T05:01:05;20;20;
72023;PMS5003;59889;50.700;5.440;2024-01-15T05:03:31;18;17;
72023;PMS5003;59889;50.700;5.440;2024-01-15T05:05:56;20;18;
72023;PMS5003;59889;50.700;5.440;2024-01-15T05:08:21;20;17;
72023;PMS5003;59889;50.700;5.440;2024-01-15T05:10:47;19;17;
72023;PMS5003;59889;50.700;5.440;2024-01-15T05:13:13;26;24;
72023;PMS5003;59889;50.700;5.440;2024-01-15T05:15:38;20;18;
72023;PMS5003;59889;50.700;5.440;2024-01-15T05:18:04;24;22;
72023;PMS5003;59889;50.700;5.440;2024-01-15T05:20:29;22;21;
72023;PMS5003;59889;50.700;5.440;2024-01-15T05:22:54;23;19;
72023;PMS5003;59889;50.700;5.440;2024-01-15T05:25:20;32;29;
72023;PMS5003;59889;50.700;5.440;2024-01-15T05:27:54;22;22;
72023;PMS5003;59889;50.700;5.440;2024-01-15T05:30:12;27;24;
72023;PMS5003;59889;50.700;5.440;2024-01-15T05:32:37;28;27;
72023;PMS5003;59889;50.700;5.440;2024-01-15T05:35:03;38;31;
72023;PMS5003;59889;50.700;5.440;2024-01-15T05:37:28;37;32;
72023;PMS5003;59889;50.700;5.440;2024-01-15T05:39:54;39;33;
72023;PMS5003;59889;50.700;5.440;2024-01-15T05:42:19;39;33;
72023;PMS5003;59889;50.700;5.440;2024-01-15T05:44:45;33;30;
72023;PMS5003;59889;50.700;5.440;2024-01-15T05:47:11;35;28;
72023;PMS5003;59889;50.700;5.440;2024-01-15T05:49:36;30;27;
72023;PMS5003;59889;50.700;5.440;2024-01-15T05:52:02;28;25;
72023;PMS5003;59889;50.700;5.440;2024-01-15T05:54:27;31;26;
72023;PMS5003;59889;50.700;5.440;2024-01-15T05:56:52;25;24;
72023;PMS5003;59889;50.700;5.440;2024-01-15T05:59:18;34;32;
72023;PMS5003;59889;50.700;5.440;2024-01-15T06:01:43;29;24;
72023;PMS5003;59889;50.700;5.440;2024-01-15T06:04:09;31;29;
72023;PMS5003;59889;50.700;5.440;2024-01-15T06:06:34;23;23;
72023;PMS5003;59889;50.700;5.440;2024-01-15T06:09:00;25;24;
72023;PMS5003;59889;50.700;5.440;2024-01-15T06:11:29;29;28;
72023;PMS5003;59889;50.700;5.440;2024-01-15T06:13:59;27;24;
72023;PMS5003;59889;50.700;5.440;2024-01-15T06:16:17;25;23;
72023;PMS5003;59889;50.700;5.440;2024-01-15T06:18:43;31;29;
72023;PMS5003;59889;50.700;5.440;2024-01-15T06:21:07;26;22;
72023;PMS5003;59889;50.700;5.440;2024-01-15T06:23:32;27;22;
72023;PMS5003;59889;50.700;5.440;2024-01-15T06:25:58;30;25;
72023;PMS5003;59889;50.700;5.440;2024-01-15T06:28:23;25;22;
72023;PMS5003;59889;50.700;5.440;2024-01-15T06:30:48;25;22;
72023;PMS5003;59889;50.700;5.440;2024-01-15T06:33:14;28;24;
72023;PMS5003;59889;50.700;5.440;2024-01-15T06:35:39;26;25;
72023;PMS5003;59889;50.700;5.440;2024-01-15T06:38:04;26;21;
72023;PMS5003;59889;50.700;5.440;2024-01-15T06:40:30;26;24;
72023;PMS5003;59889;50.700;5.440;2024-01-15T06:42:55;24;24;
72023;PMS5003;59889;50.700;5.440;2024-01-15T06:45:21;22;19;
72023;PMS5003;59889;50.700;5.440;2024-01-15T06:47:46;22;20;
72023;PMS5003;59889;50.700;5.440;2024-01-15T06:50:17;19;18;
72023;PMS5003;59889;50.700;5.440;2024-01-15T06:52:37;23;21;
72023;PMS5003;59889;50.700;5.440;2024-01-15T06:55:03;21;20;
72023;PMS5003;59889;50.700;5.440;2024-01-15T06:57:29;21;20;
72023;PMS5003;59889;50.700;5.440;2024-01-15T06:59:55;16;15;
72023;PMS5003;59889;50.700;5.440;2024-01-15T07:02:21;20;18;
72023;PMS5003;59889;50.700;5.440;2024-01-15T07:04:45;19;17;
72023;PMS5003;59889;50.700;5.440;2024-01-15T07:07:11;20;17;
72023;PMS5003;59889;50.700;5.440;2024-01-15T07:09:36;18;16;
72023;PMS5003;59889;50.700;5.440;2024-01-15T07:12:02;19;17;
72023;PMS5003;59889;50.700;5.440;2024-01-15T07:14:27;23;19;
72023;PMS5003;59889;50.700;5.440;2024-01-15T07:16:53;22;21;
72023;PMS5003;59889;50.700;5.440;2024-01-15T07:19:19;19;18;
72023;PMS5003;59889;50.700;5.440;2024-01-15T07:21:43;19;17;
72023;PMS5003;59889;50.700;5.440;2024-01-15T07:24:10;20;17;
72023;PMS5003;59889;50.700;5.440;2024-01-15T07:26:34;20;18;
72023;PMS5003;59889;50.700;5.440;2024-01-15T07:28:59;24;20;
72023;PMS5003;59889;50.700;5.440;2024-01-15T07:31:24;18;16;
72023;PMS5003;59889;50.700;5.440;2024-01-15T07:33:50;20;16;
72023;PMS5003;59889;50.700;5.440;2024-01-15T07:36:15;17;15;
72023;PMS5003;59889;50.700;5.440;2024-01-15T07:38:42;16;15;
72023;PMS5003;59889;50.700;5.440;2024-01-15T07:41:07;19;17;
72023;PMS5003;59889;50.700;5.440;2024-01-15T07:43:32;20;17;
72023;PMS5003;59889;50.700;5.440;2024-01-15T07:45:58;17;15;
72023;PMS5003;59889;50.700;5.440;2024-01-15T07:48:23;20;16;
72023;PMS5003;59889;50.700;5.440;2024-01-15T07:50:49;16;15;
72023;PMS5003;59889;50.700;5.440;2024-01-15T07:53:14;17;16;
72023;PMS5003;59889;50.700;5.440;2024-01-15T07:55:39;20;19;
72023;PMS5003;59889;50.700;5.440;2024-01-15T07:58:05;22;17;
72023;PMS5003;59889;50.700;5.440;2024-01-15T08:00:31;20;20;
72023;PMS5003;59889;50.700;5.440;2024-01-15T08:02:56;25;23;
72023;PMS5003;59889;50.700;5.440;2024-01-15T08:05:22;19;19;
72023;PMS5003;59889;50.700;5.440;2024-01-15T08:07:47;19;17;
72023;PMS5003;59889;50.700;5.440;2024-01-15T08:10:13;18;17;
72023;PMS5003;59889;50.700;5.440;2024-01-15T08:12:38;19;17;
72023;PMS5003;59889;50.700;5.440;2024-01-15T08:15:04;19;17;
72023;PMS5003;59889;50.700;5.440;2024-01-15T08:17:29;26;22;
72023;PMS5003;59889;50.700;5.440;2024-01-15T08:19:55;19;16;
72023;PMS5003;59889;50.700;5.440;2024-01-15T08:22:20;19;15;
72023;PMS5003;59889;50.700;5.440;2024-01-15T08:24:46;18;17;
72023;PMS5003;59889;50.700;5.440;2024-01-15T08:27:11;16;14;
72023;PMS5003;59889;50.700;5.440;2024-01-15T08:29:36;19;18;
72023;PMS5003;59889;50.700;5.440;2024-01-15T08:32:02;19;17;
72023;PMS5003;59889;50.700;5.440;2024-01-15T08:34:27;19;15;
72023;PMS5003;59889;50.700;5.440;2024-01-15T08:36:52;17;14;
72023;PMS5003;59889;50.700;5.440;2024-01-15T08:39:18;16;13;
72023;PMS5003;59889;50.700;5.440;2024-01-15T08:41:44;20;18;
72023;PMS5003;59889;50.700;5.440;2024-01-15T08:44:09;13;12;
72023;PMS5003;59889;50.700;5.440;2024-01-15T08:46:34;18;17;
72023;PMS5003;59889;50.700;5.440;2024-01-15T08:49:00;22;20;
72023;PMS5003;59889;50.700;5.440;2024-01-15T08:51:25;14;13;
72023;PMS5003;59889;50.700;5.440;2024-01-15T08:53:51;14;13;
72023;PMS5003;59889;50.700;5.440;2024-01-15T08:56:16;15;13;
72023;PMS5003;59889;50.700;5.440;2024-01-15T08:58:41;16;15;
72023;PMS5003;59889;50.700;5.440;2024-01-15T09:01:08;18;15;
72023;PMS5003;59889;50.700;5.440;2024-01-15T09:03:32;17;15;
72023;PMS5003;59889;50.700;5.440;2024-01-15T09:05:58;12;11;
72023;PMS5003;59889;50.700;5.440;2024-01-15T09:08:23;13;12;
72023;PMS5003;59889;50.700;5.440;2024-01-15T09:10:48;16;14;
72023;PMS5003;59889;50.700;5.440;2024-01-15T09:13:14;14;13;
72023;PMS5003;59889;50.700;5.440;2024-01-15T09:15:39;13;11;
72023;PMS5003;59889;50.700;5.440;2024-01-15T09:18:05;12;10;
72023;PMS5003;59889;50.700;5.440;2024-01-15T09:20:31;14;11;
72023;PMS5003;59889;50.700;5.440;2024-01-15T09:22:55;13;13;
72023;PMS5003;59889;50.700;5.440;2024-01-15T09:25:21;15;13;
72023;PMS5003;59889;50.700;5.440;2024-01-15T09:27:46;11;11;
72023;PMS5003;59889;50.700;5.440;2024-01-15T09:30:12;11;11;
72023;PMS5003;59889;50.700;5.440;2024-01-15T09:32:37;13;12;
72023;PMS5003;59889;50.700;5.440;2024-01-15T09:35:02;12;11;
72023;PMS5003;59889;50.700;5.440;2024-01-15T09:37:27;14;13;
72023;PMS5003;59889;50.700;5.440;2024-01-15T09:39:53;13;11;
72023;PMS5003;59889;50.700;5.440;2024-01-15T09:42:19;11;11;
72023;PMS5003;59889;50.700;5.440;2024-01-15T09:44:44;13;12;
72023;PMS5003;59889;50.700;5.440;2024-01-15T09:47:09;12;12;
72023;PMS5003;59889;50.700;5.440;2024-01-15T09:49:34;11;10;
72023;PMS5003;59889;50.700;5.440;2024-01-15T09:51:59;13;11;
72023;PMS5003;59889;50.700;5.440;2024-01-15T09:54:25;10;9;
72023;PMS5003;59889;50.700;5.440;2024-01-15T09:56:50;12;11;
72023;PMS5003;59889;50.700;5.440;2024-01-15T09:59:15;8;7;
72023;PMS5003;59889;50.700;5.440;2024-01-15T10:01:41;11;10;
72023;PMS5003;59889;50.700;5.440;2024-01-15T10:04:06;12;10;
72023;PMS5003;59889;50.700;5.440;2024-01-15T10:06:31;11;9;
72023;PMS5003;59889;50.700;5.440;2024-01-15T10:08:57;10;10;
72023;PMS5003;59889;50.700;5.440;2024-01-15T10:11:22;9;9;
72023;PMS5003;59889;50.700;5.440;2024-01-15T10:13:48;12;10;
72023;PMS5003;59889;50.700;5.440;2024-01-15T10:16:13;10;8;
72023;PMS5003;59889;50.700;5.440;2024-01-15T10:18:38;12;10;
72023;PMS5003;59889;50.700;5.440;2024-01-15T10:21:03;11;11;
72023;PMS5003;59889;50.700;5.440;2024-01-15T10:23:28;11;10;
72023;PMS5003;59889;50.700;5.440;2024-01-15T10:25:53;10;10;
72023;PMS5003;59889;50.700;5.440;2024-01-15T10:28:19;9;9;
72023;PMS5003;59889;50.700;5.440;2024-01-15T10:30:44;11;9;
72023;PMS5003;59889;50.700;5.440;2024-01-15T10:33:09;9;8;
72023;PMS5003;59889;50.700;5.440;2024-01-15T10:35:34;10;8;
72023;PMS5003;59889;50.700;5.440;2024-01-15T10:37:59;7;6;
72023;PMS5003;59889;50.700;5.440;2024-01-15T10:40:24;9;8;
72023;PMS5003;59889;50.700;5.440;2024-01-15T10:42:50;8;7;
72023;PMS5003;59889;50.700;5.440;2024-01-15T10:45:15;10;9;
72023;PMS5003;59889;50.700;5.440;2024-01-15T10:47:40;9;9;
72023;PMS5003;59889;50.700;5.440;2024-01-15T10:50:06;10;8;
72023;PMS5003;59889;50.700;5.440;2024-01-15T10:52:30;8;8;
72023;PMS5003;59889;50.700;5.440;2024-01-15T10:54:56;9;9;
72023;PMS5003;59889;50.700;5.440;2024-01-15T10:57:21;7;7;
72023;PMS5003;59889;50.700;5.440;2024-01-15T10:59:46;10;9;
72023;PMS5003;59889;50.700;5.440;2024-01-15T11:02:12;10;9;
72023;PMS5003;59889;50.700;5.440;2024-01-15T11:04:37;8;7;
72023;PMS5003;59889;50.700;5.440;2024-01-15T11:07:03;9;8;
72023;PMS5003;59889;50.700;5.440;2024-01-15T11:09:27;10;10;
72023;PMS5003;59889;50.700;5.440;2024-01-15T11:11:53;11;9;
72023;PMS5003;59889;50.700;5.440;2024-01-15T11:19:12;8;7;
72023;PMS5003;59889;50.700;5.440;2024-01-15T11:21:33;7;6;
72023;PMS5003;59889;50.700;5.440;2024-01-15T11:23:58;8;6;
72023;PMS5003;59889;50.700;5.440;2024-01-15T11:26:27;5;5;
72023;PMS5003;59889;50.700;5.440;2024-01-15T11:28:48;8;7;
72023;PMS5003;59889;50.700;5.440;2024-01-15T11:31:18;8;7;
72023;PMS5003;59889;50.700;5.440;2024-01-15T11:33:38;8;7;
72023;PMS5003;59889;50.700;5.440;2024-01-15T11:36:04;9;8;
72023;PMS5003;59889;50.700;5.440;2024-01-15T11:38:29;5;5;
72023;PMS5003;59889;50.700;5.440;2024-01-15T11:40:54;6;6;
72023;PMS5003;59889;50.700;5.440;2024-01-15T11:43:19;8;7;
72023;PMS5003;59889;50.700;5.440;2024-01-15T11:45:44;7;7;
72023;PMS5003;59889;50.700;5.440;2024-01-15T11:48:10;6;5;
72023;PMS5003;59889;50.700;5.440;2024-01-15T11:50:34;7;6;
72023;PMS5003;59889;50.700;5.440;2024-01-15T11:53:00;7;7;
72023;PMS5003;59889;50.700;5.440;2024-01-15T11:55:26;7;6;
72023;PMS5003;59889;50.700;5.440;2024-01-15T11:57:50;5;5;
72023;PMS5003;59889;50.700;5.440;2024-01-15T12:00:15;7;6;
72023;PMS5003;59889;50.700;5.440;2024-01-15T12:02:40;6;6;
72023;PMS5003;59889;50.700;5.440;2024-01-15T12:05:05;7;6;
72023;PMS5003;59889;50.700;5.440;2024-01-15T12:07:30;6;6;
72023;PMS5003;59889;50.700;5.440;2024-01-15T12:09:56;6;5;
72023;PMS5003;59889;50.700;5.440;2024-01-15T12:12:21;4;4;
72023;PMS5003;59889;50.700;5.440;2024-01-15T12:14:46;6;5;
72023;PMS5003;59889;50.700;5.440;2024-01-15T12:17:11;7;6;
72023;PMS5003;59889;50.700;5.440;2024-01-15T12:19:36;8;8;
72023;PMS5003;59889;50.700;5.440;2024-01-15T12:22:01;7;6;
72023;PMS5003;59889;50.700;5.440;2024-01-15T12:24:26;5;5;
72023;PMS5003;59889;50.700;5.440;2024-01-15T12:26:51;6;5;
72023;PMS5003;59889;50.700;5.440;2024-01-15T12:29:17;7;6;
72023;PMS5003;59889;50.700;5.440;2024-01-15T12:31:42;4;4;
72023;PMS5003;59889;50.700;5.440;2024-01-15T12:34:07;5;4;
72023;PMS5003;59889;50.700;5.440;2024-01-15T12:36:32;5;5;
72023;PMS5003;59889;50.700;5.440;2024-01-15T12:38:59;5;5;
72023;PMS5003;59889;50.700;5.440;2024-01-15T12:41:22;7;6;
72023;PMS5003;59889;50.700;5.440;2024-01-15T12:43:48;9;9;
72023;PMS5003;59889;50.700;5.440;2024-01-15T12:46:14;5;4;
72023;PMS5003;59889;50.700;5.440;2024-01-15T12:48:38;6;6;
72023;PMS5003;59889;50.700;5.440;2024-01-15T12:51:05;6;6;
72023;PMS5003;59889;50.700;5.440;2024-01-15T12:53:28;5;5;
72023;PMS5003;59889;50.700;5.440;2024-01-15T12:55:53;5;4;
72023;PMS5003;59889;50.700;5.440;2024-01-15T12:58:19;7;7;
72023;PMS5003;59889;50.700;5.440;2024-01-15T13:00:44;4;3;
72023;PMS5003;59889;50.700;5.440;2024-01-15T13:03:09;5;5;
72023;PMS5003;59889;50.700;5.440;2024-01-15T13:05:34;5;5;
72023;PMS5003;59889;50.700;5.440;2024-01-15T13:07:59;6;4;
72023;PMS5003;59889;50.700;5.440;2024-01-15T13:10:24;4;4;
72023;PMS5003;59889;50.700;5.440;2024-01-15T13:12:49;5;4;
72023;PMS5003;59889;50.700;5.440;2024-01-15T13:15:23;4;4;
72023;PMS5003;59889;50.700;5.440;2024-01-15T13:17:41;4;3;
72023;PMS5003;59889;50.700;5.440;2024-01-15T13:20:06;4;4;
72023;PMS5003;59889;50.700;5.440;2024-01-15T13:22:30;5;4;
72023;PMS5003;59889;50.700;5.440;2024-01-15T13:24:55;4;4;
72023;PMS5003;59889;50.700;5.440;2024-01-15T13:27:20;3;3;
72023;PMS5003;59889;50.700;5.440;2024-01-15T13:29:45;4;2;
72023;PMS5003;59889;50.700;5.440;2024-01-15T13:32:11;4;4;
72023;PMS5003;59889;50.700;5.440;2024-01-15T13:34:36;5;5;
72023;PMS5003;59889;50.700;5.440;2024-01-15T13:37:01;5;4;
72023;PMS5003;59889;50.700;5.440;2024-01-15T13:39:26;3;2;
72023;PMS5003;59889;50.700;5.440;2024-01-15T13:41:51;4;3;
72023;PMS5003;59889;50.700;5.440;2024-01-15T13:44:16;4;4;
72023;PMS5003;59889;50.700;5.440;2024-01-15T13:46:41;3;3;
72023;PMS5003;59889;50.700;5.440;2024-01-15T13:49:06;4;4;
72023;PMS5003;59889;50.700;5.440;2024-01-15T13:51:32;3;3;
72023;PMS5003;59889;50.700;5.440;2024-01-15T13:53:57;4;3;
72023;PMS5003;59889;50.700;5.440;2024-01-15T13:56:22;4;3;
72023;PMS5003;59889;50.700;5.440;2024-01-15T13:58:47;4;4;
72023;PMS5003;59889;50.700;5.440;2024-01-15T14:01:12;4;4;
72023;PMS5003;59889;50.700;5.440;2024-01-15T14:03:37;4;4;
72023;PMS5003;59889;50.700;5.440;2024-01-15T14:06:03;4;4;
72023;PMS5003;59889;50.700;5.440;2024-01-15T14:08:27;4;3;
72023;PMS5003;59889;50.700;5.440;2024-01-15T14:10:53;5;4;
72023;PMS5003;59889;50.700;5.440;2024-01-15T14:13:18;6;3;
72023;PMS5003;59889;50.700;5.440;2024-01-15T14:15:43;3;3;
72023;PMS5003;59889;50.700;5.440;2024-01-15T14:18:08;3;3;
72023;PMS5003;59889;50.700;5.440;2024-01-15T14:20:33;4;4;
72023;PMS5003;59889;50.700;5.440;2024-01-15T14:22:58;5;4;
72023;PMS5003;59889;50.700;5.440;2024-01-15T14:25:23;4;4;
72023;PMS5003;59889;50.700;5.440;2024-01-15T14:27:49;5;3;
72023;PMS5003;59889;50.700;5.440;2024-01-15T14:30:14;2;2;
72023;PMS5003;59889;50.700;5.440;2024-01-15T14:32:39;3;3;
72023;PMS5003;59889;50.700;5.440;2024-01-15T14:35:04;4;3;
72023;PMS5003;59889;50.700;5.440;2024-01-15T14:37:29;3;3;
72023;PMS5003;59889;50.700;5.440;2024-01-15T14:39:54;1;1;
72023;PMS5003;59889;50.700;5.440;2024-01-15T14:42:20;3;3;
72023;PMS5003;59889;50.700;5.440;2024-01-15T14:44:45;2;1;
72023;PMS5003;59889;50.700;5.440;2024-01-15T14:47:10;3;3;
72023;PMS5003;59889;50.700;5.440;2024-01-15T14:49:35;3;2;
72023;PMS5003;59889;50.700;5.440;2024-01-15T14:52:00;3;3;
72023;PMS5003;59889;50.700;5.440;2024-01-15T14:54:25;3;3;
72023;PMS5003;59889;50.700;5.440;2024-01-15T14:56:50;2;2;
72023;PMS5003;59889;50.700;5.440;2024-01-15T14:59:15;3;2;
72023;PMS5003;59889;50.700;5.440;2024-01-15T15:01:40;3;2;
72023;PMS5003;59889;50.700;5.440;2024-01-15T15:04:06;3;2;
72023;PMS5003;59889;50.700;5.440;2024-01-15T15:06:31;3;2;
72023;PMS5003;59889;50.700;5.440;2024-01-15T15:08:56;4;4;
72023;PMS5003;59889;50.700;5.440;2024-01-15T15:11:21;2;2;
72023;PMS5003;59889;50.700;5.440;2024-01-15T15:13:46;2;2;
72023;PMS5003;59889;50.700;5.440;2024-01-15T15:16:11;2;2;
72023;PMS5003;59889;50.700;5.440;2024-01-15T15:18:36;3;3;
72023;PMS5003;59889;50.700;5.440;2024-01-15T15:21:01;2;2;
72023;PMS5003;59889;50.700;5.440;2024-01-15T15:23:27;2;2;
72023;PMS5003;59889;50.700;5.440;2024-01-15T15:25:52;3;3;
72023;PMS5003;59889;50.700;5.440;2024-01-15T15:28:17;3;3;
72023;PMS5003;59889;50.700;5.440;2024-01-15T15:30:42;3;3;
72023;PMS5003;59889;50.700;5.440;2024-01-15T15:33:08;2;2;
72023;PMS5003;59889;50.700;5.440;2024-01-15T15:35:32;2;2;
72023;PMS5003;59889;50.700;5.440;2024-01-15T15:37:57;2;2;
72023;PMS5003;59889;50.700;5.440;2024-01-15T15:40:22;2;2;
72023;PMS5003;59889;50.700;5.440;2024-01-15T15:42:48;2;2;
72023;PMS5003;59889;50.700;5.440;2024-01-15T15:45:13;3;3;
72023;PMS5003;59889;50.700;5.440;2024-01-15T15:47:39;2;2;
72023;PMS5003;59889;50.700;5.440;2024-01-15T15:50:03;3;2;
72023;PMS5003;59889;50.700;5.440;2024-01-15T15:52:28;2;2;
72023;PMS5003;59889;50.700;5.440;2024-01-15T15:54:54;2;2;
72023;PMS5003;59889;50.700;5.440;2024-01-15T15:57:19;3;3;
72023;PMS5003;59889;50.700;5.440;2024-01-15T15:59:43;1;1;
72023;PMS5003;59889;50.700;5.440;2024-01-15T16:02:09;1;1;
72023;PMS5003;59889;50.700;5.440;2024-01-15T16:04:34;3;2;
72023;PMS5003;59889;50.700;5.440;2024-01-15T16:06:59;3;2;
72023;PMS5003;59889;50.700;5.440;2024-01-15T16:09:24;0;0;
72023;PMS5003;59889;50.700;5.440;2024-01-15T16:11:49;3;2;
72023;PMS5003;59889;50.700;5.440;2024-01-15T16:14:14;1;1;
72023;PMS5003;59889;50.700;5.440;2024-01-15T16:16:39;1;1;
72023;PMS5003;59889;50.700;5.440;2024-01-15T16:19:04;2;2;